PWSweather.com
Personal Weather Stations
Station Observations
TEOWRC
Pt, CampotizzoroIT 51028

PtCampotizzoroIT 51028

Lat: 44.039426, Lon: 10.870519999999942

Elevation: 0

Station Type: Davis Vantage Vue

http://www.meteocampotizzoro.it/

Latest ConditionsUpdated 10:05:04 AM GMT+01:01 Friday, Feb 22, 2019
Currently Today's Max Today's Min Today's Average
Temperature 46.7°F8.2°C 46.7°F8.2°C 32.6°F0.3°C 36.2°F2.3°C
Dew Point 42.1°F5.6°C 42.3°F5.7°C 31.8°F-0.1°C 35.1°F1.7°C
Winds Calm Calm 1.2 mph -1.9 kmh - - 0.0 mph 0.0 kmh
Wind Gusts -- 2.3 mph3.7 kmh - -
Humidity 84% 98% 84% 96%
Pressure 30.27 in1025.1 mb 30.38 in1028.8 mb 30.27 in1025.1 mb -
Hour Temp Dew Point Humidity Winds Wind Gusts Pressure Precip Precip Rate Daily Precip Total
10:05 AM 46.7°F8.2°C 42.1°F5.6°C 84% Calm Calm -- 30.27 in1025.1 mb - 0.00 in0.0 mm 0.00 in0.0 mm
10:00 AM 45.7°F7.6°C 41.2°F5.1°C 84% Calm Calm -- 30.27 in1025.1 mb - 0.00 in0.0 mm 0.00 in0.0 mm
09:55 AM 45.4°F7.4°C 41.5°F5.3°C 86% Calm Calm -- 30.28 in1025.4 mb - 0.00 in0.0 mm 0.00 in0.0 mm
09:50 AM 44.5°F6.9°C 42.3°F5.7°C 92% Calm Calm -- 30.28 in1025.4 mb - 0.00 in0.0 mm 0.00 in0.0 mm
09:45 AM 43.0°F6.1°C 41.6°F5.3°C 95% Calm Calm -- 30.27 in1025.1 mb - 0.00 in0.0 mm 0.00 in0.0 mm
09:40 AM 42.0°F5.6°C 41.5°F5.3°C 98% Calm Calm -- 30.27 in1025.1 mb - 0.00 in0.0 mm 0.00 in0.0 mm
09:35 AM 40.9°F4.9°C 40.3°F4.6°C 98% Calm Calm -- 30.28 in1025.4 mb - 0.00 in0.0 mm 0.00 in0.0 mm
09:30 AM 39.6°F4.2°C 39.0°F3.9°C 98% Calm Calm -- 30.28 in1025.4 mb - 0.00 in0.0 mm 0.00 in0.0 mm
09:25 AM 38.7°F3.7°C 38.2°F3.4°C 98% Calm Calm -- 30.28 in1025.4 mb - 0.00 in0.0 mm 0.00 in0.0 mm
09:20 AM 37.8°F3.2°C 37.3°F2.9°C 98% Calm Calm 1.2 mph1.9 kmh 30.28 in1025.4 mb - 0.00 in0.0 mm 0.00 in0.0 mm
09:15 AM 37.6°F3.1°C 37.1°F2.8°C 98% Calm Calm -- 30.28 in1025.4 mb - 0.00 in0.0 mm 0.00 in0.0 mm
09:10 AM 36.6°F2.6°C 36.1°F2.3°C 98% Calm Calm -- 30.28 in1025.4 mb - 0.00 in0.0 mm 0.00 in0.0 mm
09:05 AM 35.7°F2.1°C 35.2°F1.8°C 98% Calm Calm -- 30.28 in1025.4 mb - 0.00 in0.0 mm 0.00 in0.0 mm
09:00 AM 35.1°F1.7°C 34.6°F1.4°C 98% Calm Calm 1.2 mph1.9 kmh 30.29 in1025.7 mb - 0.00 in0.0 mm 0.00 in0.0 mm
08:55 AM 34.7°F1.5°C 34.2°F1.2°C 98% Calm Calm 1.2 mph1.9 kmh 30.29 in1025.7 mb - 0.00 in0.0 mm 0.00 in0.0 mm
08:50 AM 34.6°F1.4°C 34.1°F1.2°C 98% Calm Calm 1.2 mph1.9 kmh 30.29 in1025.7 mb - 0.00 in0.0 mm 0.00 in0.0 mm
08:45 AM 34.2°F1.2°C 33.7°F0.9°C 98% Calm Calm -- 30.29 in1025.7 mb - 0.00 in0.0 mm 0.00 in0.0 mm
08:40 AM 33.9°F1.1°C 33.1°F0.6°C 97% Calm Calm -- 30.29 in1025.7 mb - 0.00 in0.0 mm 0.00 in0.0 mm
08:35 AM 33.7°F0.9°C 32.9°F0.5°C 97% Calm Calm -- 30.29 in1025.7 mb - 0.00 in0.0 mm 0.00 in0.0 mm
08:30 AM 33.5°F0.8°C 32.7°F0.4°C 97% Calm Calm -- 30.29 in1025.7 mb - 0.00 in0.0 mm 0.00 in0.0 mm
08:25 AM 33.5°F0.8°C 32.7°F0.4°C 97% Calm Calm -- 30.29 in1025.7 mb - 0.00 in0.0 mm 0.00 in0.0 mm
08:20 AM 33.4°F0.8°C 32.7°F0.4°C 97% Calm Calm -- 30.29 in1025.7 mb - 0.00 in0.0 mm 0.00 in0.0 mm
08:15 AM 33.3°F0.7°C 32.6°F0.3°C 97% Calm Calm -- 30.29 in1025.7 mb - 0.00 in0.0 mm 0.00 in0.0 mm
08:10 AM 33.2°F0.7°C 32.5°F0.3°C 97% Calm Calm -- 30.29 in1025.7 mb - 0.00 in0.0 mm 0.00 in0.0 mm
08:05 AM 33.1°F0.6°C 32.4°F0.2°C 97% Calm Calm -- 30.30 in1026.1 mb - 0.00 in0.0 mm 0.00 in0.0 mm
08:00 AM 32.9°F0.5°C 32.1°F0.1°C 97% Calm Calm -- 30.30 in1026.1 mb - 0.00 in0.0 mm 0.00 in0.0 mm
07:55 AM 32.7°F0.4°C 31.9°F-0.1°C 97% Calm Calm -- 30.30 in1026.1 mb - 0.00 in0.0 mm 0.00 in0.0 mm
07:50 AM 32.6°F0.3°C 31.8°F-0.1°C 97% Calm Calm -- 30.29 in1025.7 mb - 0.00 in0.0 mm 0.00 in0.0 mm
07:45 AM 32.8°F0.4°C 32.0°F0.0°C 97% 1.2 mph ESE1.9 kmh ESE 2.3 mph3.7 kmh 30.30 in1026.1 mb - 0.00 in0.0 mm 0.00 in0.0 mm
07:40 AM 33.0°F0.6°C 32.2°F0.1°C 97% Calm Calm -- 30.29 in1025.7 mb - 0.00 in0.0 mm 0.00 in0.0 mm
07:35 AM 33.0°F0.6°C 32.2°F0.1°C 97% Calm Calm -- 30.29 in1025.7 mb - 0.00 in0.0 mm 0.00 in0.0 mm
07:30 AM 33.1°F0.6°C 32.3°F0.2°C 97% Calm Calm 1.2 mph1.9 kmh 30.29 in1025.7 mb - 0.00 in0.0 mm 0.00 in0.0 mm
07:25 AM 33.4°F0.8°C 32.6°F0.3°C 97% Calm Calm -- 30.29 in1025.7 mb - 0.00 in0.0 mm 0.00 in0.0 mm
07:20 AM 33.7°F0.9°C 32.9°F0.5°C 97% Calm Calm -- 30.29 in1025.7 mb - 0.00 in0.0 mm 0.00 in0.0 mm
07:15 AM 34.0°F1.1°C 33.2°F0.7°C 97% Calm Calm -- 30.29 in1025.7 mb - 0.00 in0.0 mm 0.00 in0.0 mm
07:10 AM 34.1°F1.2°C 33.3°F0.7°C 97% Calm Calm -- 30.29 in1025.7 mb - 0.00 in0.0 mm 0.00 in0.0 mm
07:05 AM 34.1°F1.2°C 33.3°F0.7°C 97% Calm Calm -- 30.29 in1025.7 mb - 0.00 in0.0 mm 0.00 in0.0 mm
07:00 AM 34.1°F1.2°C 33.3°F0.7°C 97% Calm Calm -- 30.29 in1025.7 mb - 0.00 in0.0 mm 0.00 in0.0 mm
06:55 AM 34.1°F1.2°C 33.3°F0.7°C 97% Calm Calm -- 30.29 in1025.7 mb - 0.00 in0.0 mm 0.00 in0.0 mm
06:50 AM 34.2°F1.2°C 33.4°F0.8°C 97% Calm Calm -- 30.29 in1025.7 mb - 0.00 in0.0 mm 0.00 in0.0 mm
06:45 AM 34.5°F1.4°C 33.7°F0.9°C 97% Calm Calm -- 30.30 in1026.1 mb - 0.00 in0.0 mm 0.00 in0.0 mm
06:40 AM 34.7°F1.5°C 33.9°F1.1°C 97% Calm Calm 1.2 mph1.9 kmh 30.29 in1025.7 mb - 0.00 in0.0 mm 0.00 in0.0 mm
06:35 AM 34.9°F1.6°C 34.1°F1.2°C 97% Calm Calm -- 30.29 in1025.7 mb - 0.00 in0.0 mm 0.00 in0.0 mm
06:30 AM 35.0°F1.7°C 34.2°F1.2°C 97% Calm Calm -- 30.29 in1025.7 mb - 0.00 in0.0 mm 0.00 in0.0 mm
06:25 AM 35.0°F1.7°C 34.2°F1.2°C 97% Calm Calm -- 30.29 in1025.7 mb - 0.00 in0.0 mm 0.00 in0.0 mm
06:20 AM 35.1°F1.7°C 34.3°F1.3°C 97% Calm Calm -- 30.29 in1025.7 mb - 0.00 in0.0 mm 0.00 in0.0 mm
06:15 AM 35.3°F1.8°C 34.5°F1.4°C 97% Calm Calm -- 30.29 in1025.7 mb - 0.00 in0.0 mm 0.00 in0.0 mm
06:10 AM 35.4°F1.9°C 34.6°F1.4°C 97% Calm Calm -- 30.29 in1025.7 mb - 0.00 in0.0 mm 0.00 in0.0 mm
06:05 AM 35.6°F2.0°C 34.9°F1.6°C 97% Calm Calm -- 30.29 in1025.7 mb - 0.00 in0.0 mm 0.00 in0.0 mm
06:00 AM 35.9°F2.2°C 35.1°F1.7°C 97% Calm Calm -- 30.29 in1025.7 mb - 0.00 in0.0 mm 0.00 in0.0 mm
05:55 AM 36.1°F2.3°C 35.3°F1.8°C 97% Calm Calm -- 30.30 in1026.1 mb - 0.00 in0.0 mm 0.00 in0.0 mm
05:50 AM 36.1°F2.3°C 35.3°F1.8°C 97% Calm Calm -- 30.30 in1026.1 mb - 0.00 in0.0 mm 0.00 in0.0 mm
05:45 AM 36.2°F2.3°C 35.4°F1.9°C 97% Calm Calm -- 30.30 in1026.1 mb - 0.00 in0.0 mm 0.00 in0.0 mm
05:40 AM 36.2°F2.3°C 35.4°F1.9°C 97% Calm Calm -- 30.30 in1026.1 mb - 0.00 in0.0 mm 0.00 in0.0 mm
05:35 AM 36.2°F2.3°C 35.4°F1.9°C 97% Calm Calm -- 30.30 in1026.1 mb - 0.00 in0.0 mm 0.00 in0.0 mm
05:30 AM 36.1°F2.3°C 35.3°F1.8°C 97% Calm Calm -- 30.30 in1026.1 mb - 0.00 in0.0 mm 0.00 in0.0 mm
05:25 AM 36.0°F2.2°C 35.2°F1.8°C 97% Calm Calm -- 30.30 in1026.1 mb - 0.00 in0.0 mm 0.00 in0.0 mm
05:20 AM 36.1°F2.3°C 35.3°F1.8°C 97% Calm Calm 1.2 mph1.9 kmh 30.30 in1026.1 mb - 0.00 in0.0 mm 0.00 in0.0 mm
05:15 AM 36.1°F2.3°C 35.3°F1.8°C 97% Calm Calm -- 30.30 in1026.1 mb - 0.00 in0.0 mm 0.00 in0.0 mm
05:10 AM 36.2°F2.3°C 35.4°F1.9°C 97% Calm Calm -- 30.30 in1026.1 mb - 0.00 in0.0 mm 0.00 in0.0 mm
05:05 AM 36.3°F2.4°C 35.5°F1.9°C 97% Calm Calm -- 30.31 in1026.4 mb - 0.00 in0.0 mm 0.00 in0.0 mm
05:00 AM 36.3°F2.4°C 35.5°F1.9°C 97% Calm Calm -- 30.31 in1026.4 mb - 0.00 in0.0 mm 0.00 in0.0 mm
04:55 AM 36.3°F2.4°C 35.5°F1.9°C 97% Calm Calm -- 30.31 in1026.4 mb - 0.00 in0.0 mm 0.00 in0.0 mm
04:50 AM 36.2°F2.3°C 35.4°F1.9°C 97% Calm Calm -- 30.31 in1026.4 mb - 0.00 in0.0 mm 0.00 in0.0 mm
04:45 AM 36.2°F2.3°C 35.4°F1.9°C 97% Calm Calm -- 30.31 in1026.4 mb - 0.00 in0.0 mm 0.00 in0.0 mm
04:40 AM 36.1°F2.3°C 35.3°F1.8°C 97% Calm Calm -- 30.31 in1026.4 mb - 0.00 in0.0 mm 0.00 in0.0 mm
04:35 AM 36.1°F2.3°C 35.3°F1.8°C 97% Calm Calm -- 30.31 in1026.4 mb - 0.00 in0.0 mm 0.00 in0.0 mm
04:30 AM 36.0°F2.2°C 35.2°F1.8°C 97% Calm Calm -- 30.31 in1026.4 mb - 0.00 in0.0 mm 0.00 in0.0 mm
04:25 AM 36.0°F2.2°C 35.2°F1.8°C 97% Calm Calm -- 30.31 in1026.4 mb - 0.00 in0.0 mm 0.00 in0.0 mm
04:20 AM 36.0°F2.2°C 35.2°F1.8°C 97% Calm Calm -- 30.32 in1026.8 mb - 0.00 in0.0 mm 0.00 in0.0 mm
04:15 AM 35.9°F2.2°C 35.1°F1.7°C 97% Calm Calm -- 30.32 in1026.8 mb - 0.00 in0.0 mm 0.00 in0.0 mm
04:10 AM 35.9°F2.2°C 35.1°F1.7°C 97% Calm Calm -- 30.32 in1026.8 mb - 0.00 in0.0 mm 0.00 in0.0 mm
04:05 AM 35.9°F2.2°C 35.1°F1.7°C 97% Calm Calm -- 30.32 in1026.8 mb - 0.00 in0.0 mm 0.00 in0.0 mm
04:00 AM 35.9°F2.2°C 35.1°F1.7°C 97% Calm Calm -- 30.32 in1026.8 mb - 0.00 in0.0 mm 0.00 in0.0 mm
03:55 AM 35.9°F2.2°C 34.9°F1.6°C 96% Calm Calm -- 30.32 in1026.8 mb - 0.00 in0.0 mm 0.00 in0.0 mm
03:50 AM 36.2°F2.3°C 35.1°F1.7°C 96% Calm Calm -- 30.32 in1026.8 mb - 0.00 in0.0 mm 0.00 in0.0 mm
03:45 AM 36.3°F2.4°C 35.3°F1.8°C 96% Calm Calm -- 30.32 in1026.8 mb - 0.00 in0.0 mm 0.00 in0.0 mm
03:40 AM 36.4°F2.4°C 35.4°F1.9°C 96% Calm Calm -- 30.32 in1026.8 mb - 0.00 in0.0 mm 0.00 in0.0 mm
03:35 AM 36.5°F2.5°C 35.4°F1.9°C 96% Calm Calm -- 30.32 in1026.8 mb - 0.00 in0.0 mm 0.00 in0.0 mm
03:30 AM 36.5°F2.5°C 35.5°F1.9°C 96% Calm Calm -- 30.32 in1026.8 mb - 0.00 in0.0 mm 0.00 in0.0 mm
03:25 AM 36.6°F2.6°C 35.6°F2.0°C 96% Calm Calm -- 30.33 in1027.1 mb - 0.00 in0.0 mm 0.00 in0.0 mm
03:20 AM 36.7°F2.6°C 35.7°F2.1°C 96% Calm Calm -- 30.33 in1027.1 mb - 0.00 in0.0 mm 0.00 in0.0 mm
03:15 AM 36.8°F2.7°C 35.8°F2.1°C 96% Calm Calm -- 30.33 in1027.1 mb - 0.00 in0.0 mm 0.00 in0.0 mm
03:10 AM 36.9°F2.7°C 35.9°F2.2°C 96% Calm Calm -- 30.33 in1027.1 mb - 0.00 in0.0 mm 0.00 in0.0 mm
03:05 AM 37.0°F2.8°C 36.0°F2.2°C 96% Calm Calm -- 30.33 in1027.1 mb - 0.00 in0.0 mm 0.00 in0.0 mm
03:00 AM 37.0°F2.8°C 36.0°F2.2°C 96% Calm Calm -- 30.33 in1027.1 mb - 0.00 in0.0 mm 0.00 in0.0 mm
02:55 AM 37.0°F2.8°C 36.0°F2.2°C 96% Calm Calm -- 30.34 in1027.4 mb - 0.00 in0.0 mm 0.00 in0.0 mm
02:50 AM 37.1°F2.8°C 36.1°F2.3°C 96% Calm Calm -- 30.34 in1027.4 mb - 0.00 in0.0 mm 0.00 in0.0 mm
02:45 AM 37.3°F2.9°C 36.3°F2.4°C 96% Calm Calm -- 30.34 in1027.4 mb - 0.00 in0.0 mm 0.00 in0.0 mm
02:40 AM 37.5°F3.1°C 36.5°F2.5°C 96% Calm Calm -- 30.34 in1027.4 mb - 0.00 in0.0 mm 0.00 in0.0 mm
02:35 AM 37.5°F3.1°C 36.5°F2.5°C 96% Calm Calm -- 30.34 in1027.4 mb - 0.00 in0.0 mm 0.00 in0.0 mm
02:30 AM 37.6°F3.1°C 36.6°F2.6°C 96% Calm Calm -- 30.35 in1027.8 mb - 0.00 in0.0 mm 0.00 in0.0 mm
02:25 AM 37.7°F3.2°C 36.7°F2.6°C 96% Calm Calm 1.2 mph1.9 kmh 30.35 in1027.8 mb - 0.00 in0.0 mm 0.00 in0.0 mm
02:20 AM 37.7°F3.2°C 36.7°F2.6°C 96% Calm Calm -- 30.35 in1027.8 mb - 0.00 in0.0 mm 0.00 in0.0 mm
02:15 AM 37.8°F3.2°C 36.7°F2.6°C 96% Calm Calm 1.2 mph1.9 kmh 30.35 in1027.8 mb - 0.00 in0.0 mm 0.00 in0.0 mm
02:10 AM 37.6°F3.1°C 36.3°F2.4°C 95% Calm Calm -- 30.35 in1027.8 mb - 0.00 in0.0 mm 0.00 in0.0 mm
02:05 AM 37.6°F3.1°C 36.3°F2.4°C 95% Calm Calm -- 30.35 in1027.8 mb - 0.00 in0.0 mm 0.00 in0.0 mm
02:00 AM 37.4°F3.0°C 36.1°F2.3°C 95% Calm Calm -- 30.36 in1028.1 mb - 0.00 in0.0 mm 0.00 in0.0 mm
01:55 AM 37.4°F3.0°C 36.1°F2.3°C 95% Calm Calm -- 30.36 in1028.1 mb - 0.00 in0.0 mm 0.00 in0.0 mm
01:50 AM 37.3°F2.9°C 36.0°F2.2°C 95% Calm Calm -- 30.36 in1028.1 mb - 0.00 in0.0 mm 0.00 in0.0 mm
01:45 AM 37.1°F2.8°C 35.8°F2.1°C 95% Calm Calm -- 30.36 in1028.1 mb - 0.00 in0.0 mm 0.00 in0.0 mm
01:40 AM 37.0°F2.8°C 35.7°F2.1°C 95% Calm Calm -- 30.36 in1028.1 mb - 0.00 in0.0 mm 0.00 in0.0 mm
01:35 AM 36.9°F2.7°C 35.6°F2.0°C 95% Calm Calm -- 30.36 in1028.1 mb - 0.00 in0.0 mm 0.00 in0.0 mm
01:30 AM 36.7°F2.6°C 35.4°F1.9°C 95% Calm Calm -- 30.36 in1028.1 mb - 0.00 in0.0 mm 0.00 in0.0 mm
01:25 AM 36.7°F2.6°C 35.1°F1.7°C 94% Calm Calm -- 30.36 in1028.1 mb - 0.00 in0.0 mm 0.00 in0.0 mm
01:20 AM 36.7°F2.6°C 35.4°F1.9°C 95% Calm Calm -- 30.36 in1028.1 mb - 0.00 in0.0 mm 0.00 in0.0 mm
01:15 AM 36.4°F2.4°C 35.1°F1.7°C 95% Calm Calm -- 30.36 in1028.1 mb - 0.00 in0.0 mm 0.00 in0.0 mm
01:10 AM 36.3°F2.4°C 35.0°F1.7°C 95% Calm Calm -- 30.37 in1028.4 mb - 0.00 in0.0 mm 0.00 in0.0 mm
01:05 AM 36.2°F2.3°C 34.9°F1.6°C 95% Calm Calm -- 30.37 in1028.4 mb - 0.00 in0.0 mm 0.00 in0.0 mm
01:00 AM 36.1°F2.3°C 34.8°F1.6°C 95% Calm Calm -- 30.37 in1028.4 mb - 0.00 in0.0 mm 0.00 in0.0 mm
12:55 AM 36.0°F2.2°C 34.7°F1.5°C 95% Calm Calm -- 30.37 in1028.4 mb - 0.00 in0.0 mm 0.00 in0.0 mm
12:50 AM 35.8°F2.1°C 34.5°F1.4°C 95% Calm Calm -- 30.38 in1028.8 mb - 0.00 in0.0 mm 0.00 in0.0 mm
12:45 AM 35.7°F2.1°C 34.4°F1.3°C 95% Calm Calm -- 30.37 in1028.4 mb - 0.00 in0.0 mm 0.00 in0.0 mm
12:40 AM 35.5°F1.9°C 34.2°F1.2°C 95% Calm Calm -- 30.38 in1028.8 mb - 0.00 in0.0 mm 0.00 in0.0 mm
12:35 AM 35.3°F1.8°C 34.0°F1.1°C 95% Calm Calm -- 30.38 in1028.8 mb - 0.00 in0.0 mm 0.00 in0.0 mm
12:30 AM 35.1°F1.7°C 33.8°F1.0°C 95% Calm Calm -- 30.38 in1028.8 mb - 0.00 in0.0 mm 0.00 in0.0 mm
12:25 AM 35.1°F1.7°C 33.8°F1.0°C 95% Calm Calm -- 30.37 in1028.4 mb - 0.00 in0.0 mm 0.00 in0.0 mm
12:20 AM 35.0°F1.7°C 33.7°F0.9°C 95% Calm Calm -- 30.37 in1028.4 mb - 0.00 in0.0 mm 0.00 in0.0 mm
12:15 AM 34.9°F1.6°C 33.7°F0.9°C 95% Calm Calm -- 30.38 in1028.8 mb - 0.00 in0.0 mm 0.00 in0.0 mm
12:10 AM 34.9°F1.6°C 33.6°F0.9°C 95% Calm Calm -- 30.38 in1028.8 mb - 0.00 in0.0 mm 0.00 in0.0 mm
12:05 AM 34.6°F1.4°C 33.3°F0.7°C 95% Calm Calm -- 30.37 in1028.4 mb - 0.00 in0.0 mm 0.00 in0.0 mm
12:00 AM 34.4°F1.3°C 33.1°F0.6°C 95% Calm Calm -- 30.37 in1028.4 mb - 0.00 in0.0 mm 0.00 in0.0 mm